Disclaimer

Please do not use the information listed here in-flight or in-navigation, as they are not provided to us by the airports but are provided by volunteers, so they might be outdated.

Search


Regions


Airport information page

Radio informations:
Tower (TWR) - 121.9 MHz
PROVIDENCIA RDO - 6728 MHz
SAN ANDRES APP - 119.3 MHz

Airport informations:
Latitude: 13° 21' 25.00" N
Longitude: 081° 21' 29.99" W
Elevation: 10 feet - 3 meters
Operating hours: Remarks
Operating agency: Civil government, landing fees and diplomatic clearance may be required
Timezone: UTC-5
Fuel: N/A

Runway information:
17/35 - 3832 x 50 feet< - >1168 x 15 meters

Recent METARs:
SKPV 192300Z 08004KT 030V120 9999 FEW017 26/23 A2988
SKPV 192300Z 08004KT 030V120 9999 FEW017 26/23 A2988
SKPV 200000Z 07004KT 350V170 9999 FEW017 26/23 A2988

Airport on the map: